createdAt,value
2023-04-28T00:01:13.014Z,65.50
2023-04-28T00:03:39.826Z,65.34
2023-04-28T00:06:06.713Z,65.28
2023-04-28T00:08:33.541Z,65.76
2023-04-28T00:11:00.987Z,65.57
2023-04-28T00:13:27.644Z,65.46
2023-04-28T00:15:54.679Z,65.67
2023-04-28T00:18:21.813Z,65.99
2023-04-28T00:20:48.695Z,65.72
2023-04-28T00:23:16.043Z,65.39
2023-04-28T00:25:42.636Z,65.69
2023-04-28T00:28:09.277Z,65.74
2023-04-28T00:30:36.060Z,66.26
2023-04-28T00:33:02.846Z,65.97
2023-04-28T00:35:29.586Z,65.67
2023-04-28T00:37:56.247Z,66.10
2023-04-28T00:40:22.973Z,65.90
2023-04-28T00:42:49.636Z,65.89
2023-04-28T00:45:16.415Z,65.93
2023-04-28T00:47:43.407Z,66.34
2023-04-28T00:50:10.668Z,66.29
2023-04-28T00:52:38.851Z,65.85
2023-04-28T00:55:06.043Z,66.08
2023-04-28T00:57:32.735Z,66.12
2023-04-28T00:59:59.746Z,65.97
2023-04-28T01:02:27.184Z,66.45
2023-04-28T01:04:54.531Z,66.63
2023-04-28T01:07:21.630Z,66.11
2023-04-28T01:09:48.487Z,66.25
2023-04-28T01:12:15.117Z,66.13
2023-04-28T01:14:42.253Z,66.16
2023-04-28T01:17:09.461Z,66.54
2023-04-28T01:19:36.249Z,66.72
2023-04-28T01:22:02.998Z,66.71
2023-04-28T01:24:29.601Z,66.87
2023-04-28T01:26:56.537Z,67.02
2023-04-28T01:29:23.232Z,67.23
2023-04-28T01:31:49.941Z,67.45
2023-04-28T01:34:16.948Z,67.70
2023-04-28T01:36:43.975Z,67.67
2023-04-28T01:39:10.867Z,68.06
2023-04-28T01:41:37.526Z,68.08
2023-04-28T01:44:05.101Z,68.06
2023-04-28T01:46:32.008Z,68.15
2023-04-28T01:48:58.826Z,68.14
2023-04-28T01:51:25.466Z,68.19
2023-04-28T01:53:52.252Z,68.13
2023-04-28T01:56:18.880Z,68.63
2023-04-28T01:58:45.808Z,68.70
2023-04-28T02:01:12.545Z,68.71
2023-04-28T02:03:39.322Z,68.93
2023-04-28T02:06:06.153Z,68.81
2023-04-28T02:08:32.817Z,69.09
2023-04-28T02:11:01.594Z,68.96
2023-04-28T02:13:28.205Z,68.80
2023-04-28T02:15:54.851Z,69.25
2023-04-28T02:18:21.600Z,69.15
2023-04-28T02:20:48.204Z,69.06
2023-04-28T02:23:14.807Z,69.37
2023-04-28T02:25:41.428Z,69.33
2023-04-28T02:28:08.087Z,69.49
2023-04-28T02:30:34.748Z,69.26
2023-04-28T02:33:01.598Z,69.83
2023-04-28T02:35:28.374Z,69.87
2023-04-28T02:37:55.215Z,70.34
2023-04-28T02:40:21.879Z,70.11
2023-04-28T02:42:48.511Z,70.34
2023-04-28T02:45:15.254Z,70.30
2023-04-28T02:47:41.921Z,70.31
2023-04-28T02:50:09.251Z,70.76
2023-04-28T02:52:35.934Z,70.70
2023-04-28T02:55:03.848Z,70.58
2023-04-28T02:57:30.782Z,71.02
2023-04-28T02:59:57.430Z,71.04
2023-04-28T03:02:24.140Z,71.04
2023-04-28T03:04:50.817Z,70.88
2023-04-28T03:07:17.564Z,71.13
2023-04-28T03:09:46.086Z,71.13
2023-04-28T03:12:12.750Z,71.14
2023-04-28T03:14:39.368Z,71.31
2023-04-28T03:17:06.471Z,71.22
2023-04-28T03:19:33.424Z,71.19
2023-04-28T03:22:00.034Z,71.26
2023-04-28T03:24:26.812Z,71.11
2023-04-28T03:26:53.551Z,71.29
2023-04-28T03:29:20.375Z,71.29
2023-04-28T03:31:47.145Z,71.46
2023-04-28T03:34:14.604Z,71.11
2023-04-28T03:36:41.480Z,71.49
2023-04-28T03:39:09.796Z,71.85
2023-04-28T03:41:36.540Z,71.73
2023-04-28T03:44:03.152Z,71.78
2023-04-28T03:46:29.842Z,71.54
2023-04-28T03:48:56.582Z,71.98
2023-04-28T03:51:23.254Z,72.13
2023-04-28T03:53:49.855Z,72.10
2023-04-28T03:56:16.812Z,72.06
2023-04-28T03:58:43.485Z,71.83
2023-04-28T04:01:10.759Z,72.42
2023-04-28T04:03:37.580Z,72.43
2023-04-28T04:06:04.779Z,72.47
2023-04-28T04:08:32.956Z,72.59
2023-04-28T04:10:59.603Z,72.75
2023-04-28T04:13:26.227Z,72.74
2023-04-28T04:15:53.077Z,73.06
2023-04-28T04:18:19.813Z,72.96
2023-04-28T04:20:46.489Z,72.78
2023-04-28T04:23:13.113Z,72.89
2023-04-28T04:25:39.753Z,72.56
2023-04-28T04:28:06.416Z,72.80
2023-04-28T04:30:33.119Z,72.93
2023-04-28T04:32:59.870Z,72.97
2023-04-28T04:35:26.515Z,73.26
2023-04-28T04:37:53.410Z,73.42
2023-04-28T04:40:20.092Z,73.48
2023-04-28T04:42:46.686Z,73.61
2023-04-28T04:45:13.396Z,73.46
2023-04-28T04:47:40.973Z,73.69
2023-04-28T04:50:08.288Z,73.86
2023-04-28T04:52:34.893Z,73.92
2023-04-28T04:55:01.581Z,74.22
2023-04-28T04:57:28.203Z,74.38
2023-04-28T04:59:54.856Z,74.21
2023-04-28T05:02:21.545Z,74.06
2023-04-28T05:04:48.394Z,73.86
2023-04-28T05:07:15.052Z,74.00
2023-04-28T05:09:41.725Z,73.95
2023-04-28T05:12:08.357Z,74.09
2023-04-28T05:14:35.285Z,74.33
2023-04-28T05:17:02.871Z,74.26
2023-04-28T05:19:29.505Z,74.40
2023-04-28T05:21:56.201Z,74.48
2023-04-28T05:24:25.739Z,74.45
2023-04-28T05:26:54.076Z,74.53
2023-04-28T05:29:21.994Z,74.76
2023-04-28T05:31:48.742Z,74.74
2023-04-28T05:34:15.835Z,74.97
2023-04-28T05:36:43.994Z,75.09
2023-04-28T05:39:11.033Z,75.43
2023-04-28T05:41:37.643Z,75.36
2023-04-28T05:44:04.395Z,75.26
2023-04-28T05:46:31.444Z,75.47
2023-04-28T05:48:58.236Z,75.35
2023-04-28T05:51:24.914Z,75.48
2023-04-28T05:53:51.527Z,75.50
2023-04-28T05:56:18.295Z,75.50
2023-04-28T05:58:45.100Z,75.74
2023-04-28T06:01:12.003Z,75.28
2023-04-28T06:03:40.467Z,75.47
2023-04-28T06:06:10.190Z,75.26
2023-04-28T06:08:37.936Z,75.22
2023-04-28T06:11:04.809Z,75.29
2023-04-28T06:13:31.525Z,75.47
2023-04-28T06:15:58.448Z,75.21
2023-04-28T06:18:25.792Z,75.31
2023-04-28T06:20:52.486Z,75.54
2023-04-28T06:23:19.126Z,75.08
2023-04-28T06:25:45.794Z,75.25
2023-04-28T06:28:13.459Z,75.55
2023-04-28T06:30:40.267Z,75.43
2023-04-28T06:33:07.694Z,76.05
2023-04-28T06:35:39.075Z,76.15
2023-04-28T06:38:06.647Z,76.00
2023-04-28T06:40:33.330Z,75.73
2023-04-28T06:42:59.943Z,75.96
2023-04-28T06:45:26.680Z,75.73
2023-04-28T06:47:55.903Z,75.65
2023-04-28T06:50:23.663Z,75.74
2023-04-28T06:52:50.533Z,75.77
2023-04-28T06:55:17.822Z,75.99
2023-04-28T06:57:44.927Z,76.22
2023-04-28T07:00:12.781Z,76.00
2023-04-28T07:02:39.601Z,76.19
2023-04-28T07:05:06.865Z,76.33
2023-04-28T07:07:33.618Z,75.99
2023-04-28T07:10:01.135Z,76.05
2023-04-28T07:12:28.020Z,75.66
2023-04-28T07:14:55.941Z,75.99
2023-04-28T07:17:22.751Z,76.06
2023-04-28T07:19:50.928Z,75.90
2023-04-28T07:22:17.813Z,76.10
2023-04-28T07:24:44.776Z,76.12
2023-04-28T07:27:11.403Z,75.91
2023-04-28T07:29:38.311Z,75.89
2023-04-28T07:32:14.028Z,76.09
2023-04-28T07:34:40.772Z,76.09
2023-04-28T07:37:07.570Z,75.63
2023-04-28T07:39:35.147Z,75.60
2023-04-28T07:42:03.230Z,75.50
2023-04-28T07:44:31.091Z,75.50
2023-04-28T07:46:58.987Z,75.36
2023-04-28T07:49:26.416Z,75.54
2023-04-28T07:51:55.018Z,75.62
2023-04-28T07:54:21.651Z,75.14
2023-04-28T07:56:48.464Z,75.19
2023-04-28T07:59:15.099Z,75.30
2023-04-28T08:01:43.005Z,75.26
2023-04-28T08:04:09.956Z,75.39
2023-04-28T08:06:36.869Z,75.49
2023-04-28T08:09:05.960Z,75.05
2023-04-28T08:11:33.550Z,75.34
2023-04-28T08:14:04.064Z,75.04
2023-04-28T08:16:31.533Z,75.27
2023-04-28T08:18:59.871Z,75.46
2023-04-28T08:21:27.145Z,74.76
2023-04-28T08:23:53.825Z,74.49
2023-04-28T08:26:20.764Z,74.13
2023-04-28T08:28:47.471Z,74.17
2023-04-28T08:31:14.236Z,74.17
2023-04-28T08:33:44.496Z,73.46
2023-04-28T08:36:15.229Z,73.84
2023-04-28T08:38:42.222Z,73.61
2023-04-28T08:41:08.970Z,73.54
2023-04-28T08:43:36.624Z,73.43
2023-04-28T08:46:07.477Z,73.13
2023-04-28T08:48:42.090Z,72.62
2023-04-28T08:51:09.073Z,72.45
2023-04-28T08:54:06.082Z,72.53
2023-04-28T08:56:31.934Z,72.54
2023-04-28T08:59:03.666Z,72.14
2023-04-28T09:01:33.329Z,71.86
2023-04-28T09:04:14.246Z,71.96
2023-04-28T09:06:41.525Z,71.09
2023-04-28T09:09:25.369Z,71.44
2023-04-28T09:11:52.929Z,70.69
2023-04-28T09:14:19.612Z,69.80
2023-04-28T09:16:46.494Z,69.74
2023-04-28T09:19:13.276Z,70.11
2023-04-28T09:21:55.977Z,67.91
2023-04-28T09:24:39.732Z,68.51
2023-04-28T09:27:10.687Z,68.21
2023-04-28T09:29:52.764Z,68.16
2023-04-28T09:32:25.040Z,67.47
2023-04-28T09:34:56.800Z,67.28
2023-04-28T09:37:25.453Z,66.99
2023-04-28T09:39:54.186Z,66.03
2023-04-28T09:42:40.896Z,66.80
2023-04-28T09:45:12.050Z,66.96
2023-04-28T09:47:43.565Z,66.84
2023-04-28T09:50:15.082Z,64.68
2023-04-28T09:52:45.008Z,64.51
2023-04-28T09:55:12.865Z,64.42
2023-04-28T09:57:40.220Z,64.90
2023-04-28T10:00:09.311Z,64.83
2023-04-28T10:05:11.710Z,64.38
2023-04-28T10:07:39.475Z,64.31
2023-04-28T10:10:07.901Z,64.06
2023-04-28T10:12:35.312Z,64.00
2023-04-28T10:15:02.766Z,63.79
2023-04-28T10:17:29.950Z,64.13
2023-04-28T10:19:57.552Z,64.67
2023-04-28T10:22:51.002Z,64.82
2023-04-28T10:25:36.041Z,64.08
2023-04-28T10:28:07.935Z,63.34
2023-04-28T10:30:36.089Z,62.99
2023-04-28T10:33:09.384Z,61.85
2023-04-28T10:35:37.492Z,61.37
2023-04-28T10:38:10.916Z,61.37
2023-04-28T10:40:39.605Z,61.05
2023-04-28T10:43:07.807Z,61.32
2023-04-28T10:45:50.346Z,60.07
2023-04-28T10:48:17.181Z,59.89
2023-04-28T10:51:04.957Z,59.09
2023-04-28T10:53:48.112Z,58.14
2023-04-28T10:56:23.682Z,58.01
2023-04-28T10:58:54.550Z,57.91
2023-04-28T11:01:21.537Z,58.26
2023-04-28T11:03:52.428Z,58.52
2023-04-28T11:06:29.223Z,57.70
2023-04-28T11:08:58.127Z,56.61
2023-04-28T11:11:34.954Z,56.86
2023-04-28T11:14:20.426Z,57.14
2023-04-28T11:16:50.919Z,55.81
2023-04-28T11:19:32.228Z,54.51
2023-04-28T11:22:01.110Z,55.36
2023-04-28T11:24:29.485Z,55.88
2023-04-28T11:26:57.520Z,55.39
2023-04-28T11:29:33.641Z,53.81
2023-04-28T11:32:01.036Z,53.25
2023-04-28T11:34:28.039Z,53.75
2023-04-28T11:36:55.142Z,53.44
2023-04-28T11:39:29.383Z,52.89
2023-04-28T11:41:57.073Z,52.64
2023-04-28T11:44:28.845Z,52.53
2023-04-28T11:47:00.278Z,51.95
2023-04-28T11:49:32.810Z,50.02
2023-04-28T11:52:07.281Z,50.46
2023-04-28T11:54:34.363Z,49.75
2023-04-28T11:57:04.285Z,49.85
2023-04-28T11:59:34.018Z,49.81
2023-04-28T12:02:03.521Z,50.63
2023-04-28T12:04:36.425Z,50.49
2023-04-28T12:07:13.495Z,50.42
2023-04-28T12:09:42.917Z,50.51
2023-04-28T12:12:12.177Z,50.49
2023-04-28T12:15:01.437Z,50.70
2023-04-28T12:17:33.448Z,50.89
2023-04-28T12:20:02.770Z,51.36
2023-04-28T12:22:30.390Z,51.20
2023-04-28T12:25:10.495Z,51.61
2023-04-28T12:27:41.642Z,50.85
2023-04-28T12:30:20.865Z,50.71
2023-04-28T12:32:48.444Z,50.01
2023-04-28T12:35:16.144Z,48.52
2023-04-28T12:37:43.605Z,48.99
2023-04-28T12:40:11.024Z,49.35
2023-04-28T12:42:37.725Z,49.60
2023-04-28T12:45:05.936Z,49.38
2023-04-28T12:47:32.750Z,48.84
2023-04-28T12:49:59.395Z,48.76
2023-04-28T12:52:26.769Z,48.95
2023-04-28T12:54:53.418Z,47.69
2023-04-28T12:57:20.238Z,48.21
2023-04-28T12:59:52.574Z,47.87
2023-04-28T13:02:19.385Z,47.79
2023-04-28T13:04:46.397Z,47.03
2023-04-28T13:07:14.320Z,47.38
2023-04-28T13:09:43.001Z,45.81
2023-04-28T13:12:11.857Z,46.05
2023-04-28T13:14:38.827Z,45.71
2023-04-28T13:17:05.491Z,45.75
2023-04-28T13:19:32.764Z,45.59
2023-04-28T13:22:00.190Z,45.50
2023-04-28T13:24:26.827Z,45.63
2023-04-28T13:26:53.515Z,44.91
2023-04-28T13:29:20.558Z,44.69
2023-04-28T13:31:47.306Z,44.04
2023-04-28T13:34:17.466Z,43.34
2023-04-28T13:36:44.867Z,42.90
2023-04-28T13:39:11.766Z,43.20
2023-04-28T13:41:38.515Z,42.72
2023-04-28T13:44:05.178Z,42.95
2023-04-28T13:46:31.815Z,43.51
2023-04-28T13:48:58.569Z,41.71
2023-04-28T13:51:25.313Z,42.13
2023-04-28T13:53:52.088Z,42.29
2023-04-28T13:56:18.776Z,42.45
2023-04-28T13:58:45.522Z,44.29
2023-04-28T14:01:12.277Z,46.23
2023-04-28T14:03:40.581Z,48.02
2023-04-28T14:06:08.303Z,49.12
2023-04-28T14:08:35.009Z,49.30
2023-04-28T14:11:01.663Z,49.98
2023-04-28T14:13:29.744Z,50.88
2023-04-28T14:15:59.564Z,50.97
2023-04-28T14:18:27.725Z,51.09
2023-04-28T14:20:55.770Z,50.87
2023-04-28T14:23:23.160Z,50.54
2023-04-28T14:25:50.430Z,50.30
2023-04-28T14:28:17.551Z,49.94
2023-04-28T14:30:44.302Z,50.29
2023-04-28T14:33:11.255Z,50.27
2023-04-28T14:35:38.164Z,50.54
2023-04-28T14:38:04.848Z,50.92
2023-04-28T14:40:31.675Z,51.44
2023-04-28T14:42:58.350Z,51.40
2023-04-28T14:45:25.077Z,50.99
2023-04-28T14:47:51.868Z,51.20
2023-04-28T14:50:18.794Z,50.88
2023-04-28T14:52:45.730Z,50.56
2023-04-28T14:55:13.665Z,50.39
2023-04-28T14:57:40.650Z,49.67
2023-04-28T15:00:08.255Z,49.71
2023-04-28T15:02:36.206Z,50.17
2023-04-28T15:05:03.425Z,50.07
2023-04-28T15:07:31.909Z,50.10
2023-04-28T15:10:01.661Z,50.04
2023-04-28T15:12:30.479Z,49.53
2023-04-28T15:14:57.878Z,49.42
2023-04-28T15:17:24.940Z,49.43
2023-04-28T15:19:52.260Z,49.45
2023-04-28T15:22:19.002Z,49.04
2023-04-28T15:24:45.939Z,49.10
2023-04-28T15:27:12.779Z,48.97
2023-04-28T15:29:40.090Z,49.03
2023-04-28T15:32:07.001Z,49.46
2023-04-28T15:34:34.077Z,49.42
2023-04-28T15:37:01.505Z,49.15
2023-04-28T15:39:28.764Z,48.90
2023-04-28T15:41:56.230Z,49.32
2023-04-28T15:44:23.250Z,49.36
2023-04-28T15:46:52.084Z,49.02
2023-04-28T15:49:18.854Z,48.46
2023-04-28T15:51:45.811Z,48.04
2023-04-28T15:54:12.552Z,47.31
2023-04-28T15:56:39.418Z,44.89
2023-04-28T15:59:06.350Z,45.97
2023-04-28T16:01:33.487Z,46.78
2023-04-28T16:04:00.498Z,47.25
2023-04-28T16:06:27.724Z,47.30
2023-04-28T16:08:54.559Z,47.34
2023-04-28T16:11:21.365Z,47.04
2023-04-28T16:13:48.021Z,46.99
2023-04-28T16:16:14.953Z,46.55
2023-04-28T16:18:41.857Z,46.71
2023-04-28T16:21:08.681Z,46.80
2023-04-28T16:23:35.466Z,46.27
2023-04-28T16:26:02.119Z,46.11
2023-04-28T16:28:28.786Z,45.60
2023-04-28T16:30:55.453Z,45.01
2023-04-28T16:33:22.204Z,43.71
2023-04-28T16:35:56.083Z,44.92
2023-04-28T16:38:22.911Z,45.53
2023-04-28T16:40:50.879Z,45.46
2023-04-28T16:43:18.076Z,45.22
2023-04-28T16:45:44.850Z,45.65
2023-04-28T16:48:11.783Z,45.84
2023-04-28T16:50:41.040Z,45.54
2023-04-28T16:53:08.720Z,45.49
2023-04-28T16:55:38.100Z,45.38
2023-04-28T16:58:04.950Z,45.08
2023-04-28T17:00:31.740Z,45.08
2023-04-28T17:02:58.558Z,45.02
2023-04-28T17:05:25.563Z,45.19
2023-04-28T17:07:52.276Z,45.00
2023-04-28T17:10:19.073Z,45.11
2023-04-28T17:12:45.956Z,45.71
2023-04-28T17:15:19.216Z,46.58
2023-04-28T17:17:49.911Z,46.79
2023-04-28T17:20:18.081Z,46.76
2023-04-28T17:22:44.858Z,46.66
2023-04-28T17:25:12.578Z,47.03
2023-04-28T17:27:39.542Z,47.07
2023-04-28T17:30:10.672Z,47.01
2023-04-28T17:32:37.959Z,47.05
2023-04-28T17:35:05.097Z,47.03
2023-04-28T17:37:33.154Z,47.09
2023-04-28T17:40:00.820Z,47.25
2023-04-28T17:42:33.547Z,46.85
2023-04-28T17:45:00.216Z,47.35
2023-04-28T17:47:26.937Z,47.31
2023-04-28T17:49:54.417Z,47.41
2023-04-28T17:52:21.108Z,47.86
2023-04-28T17:54:47.986Z,47.74
2023-04-28T17:57:14.787Z,47.88
2023-04-28T17:59:42.678Z,47.26
2023-04-28T18:02:10.465Z,47.34
2023-04-28T18:04:37.868Z,47.19
2023-04-28T18:07:05.604Z,46.90
2023-04-28T18:09:32.250Z,46.89
2023-04-28T18:11:59.142Z,46.84
2023-04-28T18:14:25.849Z,46.83
2023-04-28T18:16:52.532Z,46.65
2023-04-28T18:19:19.213Z,46.75
2023-04-28T18:21:45.921Z,47.15
2023-04-28T18:24:12.608Z,47.20
2023-04-28T18:26:39.245Z,47.58
2023-04-28T18:29:06.031Z,47.48
2023-04-28T18:31:34.028Z,47.46
2023-04-28T18:34:00.856Z,48.08
2023-04-28T18:36:27.797Z,47.93
2023-04-28T18:38:54.430Z,48.37
2023-04-28T18:41:21.703Z,48.89
2023-04-28T18:43:48.352Z,49.23
2023-04-28T18:46:15.051Z,49.19
2023-04-28T18:48:42.214Z,49.54
2023-04-28T18:51:08.928Z,49.50
2023-04-28T18:53:36.444Z,49.63
2023-04-28T18:56:03.291Z,50.00
2023-04-28T18:58:30.038Z,49.68
2023-04-28T19:00:56.909Z,50.42
2023-04-28T19:03:24.350Z,50.72
2023-04-28T19:05:51.307Z,50.31
2023-04-28T19:08:17.969Z,50.65
2023-04-28T19:10:44.610Z,50.75
2023-04-28T19:13:11.297Z,50.54
2023-04-28T19:15:37.993Z,51.06
2023-04-28T19:18:04.924Z,50.65
2023-04-28T19:20:31.627Z,50.97
2023-04-28T19:23:01.501Z,51.02
2023-04-28T19:25:30.658Z,51.24
2023-04-28T19:27:57.600Z,51.35
2023-04-28T19:30:24.305Z,51.44
2023-04-28T19:32:51.029Z,51.54
2023-04-28T19:35:17.718Z,51.72
2023-04-28T19:37:44.543Z,51.91
2023-04-28T19:40:11.875Z,51.64
2023-04-28T19:42:38.640Z,51.85
2023-04-28T19:45:05.900Z,52.13
2023-04-28T19:47:36.999Z,52.12
2023-04-28T19:50:05.309Z,52.39
2023-04-28T19:52:32.093Z,52.55
2023-04-28T19:55:00.627Z,52.76
2023-04-28T19:57:27.557Z,52.60
2023-04-28T19:59:54.583Z,53.07
2023-04-28T20:02:22.661Z,52.92
2023-04-28T20:04:49.587Z,52.66
2023-04-28T20:07:16.842Z,53.07
2023-04-28T20:09:44.494Z,53.47
2023-04-28T20:12:11.623Z,53.15
2023-04-28T20:14:38.374Z,53.34
2023-04-28T20:17:05.605Z,53.37
2023-04-28T20:19:32.388Z,53.61
2023-04-28T20:21:59.055Z,53.62
2023-04-28T20:24:25.962Z,53.77
2023-04-28T20:26:54.608Z,53.29
2023-04-28T20:29:21.696Z,53.70
2023-04-28T20:31:48.674Z,53.85
2023-04-28T20:34:15.489Z,54.31
2023-04-28T20:36:42.925Z,54.71
2023-04-28T20:39:11.277Z,54.09
2023-04-28T20:41:40.900Z,54.27
2023-04-28T20:44:08.070Z,54.29
2023-04-28T20:46:35.600Z,54.42
2023-04-28T20:49:03.031Z,54.78
2023-04-28T20:51:30.252Z,54.93
2023-04-28T20:53:57.770Z,54.60
2023-04-28T20:56:24.716Z,54.83
2023-04-28T20:58:51.550Z,55.15
2023-04-28T21:01:18.328Z,54.83
2023-04-28T21:03:45.367Z,55.27
2023-04-28T21:06:12.247Z,55.14
2023-04-28T21:08:40.755Z,55.14
2023-04-28T21:11:15.102Z,55.67
2023-04-28T21:13:43.076Z,55.72
2023-04-28T21:16:20.666Z,55.71
2023-04-28T21:18:47.960Z,55.32
2023-04-28T21:21:15.023Z,55.36
2023-04-28T21:23:43.057Z,55.62
2023-04-28T21:26:10.256Z,55.84
2023-04-28T21:28:37.717Z,55.80
2023-04-28T21:31:04.959Z,55.48
2023-04-28T21:33:32.081Z,55.70
2023-04-28T21:36:03.449Z,56.04
2023-04-28T21:38:30.165Z,55.87
2023-04-28T21:40:56.930Z,55.82
2023-04-28T21:43:24.136Z,55.68
2023-04-28T21:45:52.207Z,55.98
2023-04-28T21:48:18.927Z,56.19
2023-04-28T21:50:45.605Z,56.88
2023-04-28T21:53:12.261Z,56.87
2023-04-28T21:55:39.815Z,56.71
2023-04-28T21:58:06.493Z,56.67
2023-04-28T22:00:39.559Z,56.58
2023-04-28T22:03:06.716Z,57.03
2023-04-28T22:05:34.294Z,57.04
2023-04-28T22:08:01.830Z,56.72
2023-04-28T22:10:28.553Z,56.69
2023-04-28T22:12:55.223Z,56.98
2023-04-28T22:15:22.021Z,56.96
2023-04-28T22:17:48.733Z,57.33
2023-04-28T22:20:15.647Z,57.70
2023-04-28T22:22:42.369Z,57.57
2023-04-28T22:25:09.354Z,57.63
2023-04-28T22:27:36.038Z,57.68
2023-04-28T22:30:02.866Z,57.60
2023-04-28T22:32:29.512Z,57.57
2023-04-28T22:34:56.177Z,57.89
2023-04-28T22:37:22.846Z,57.74
2023-04-28T22:39:50.077Z,57.87
2023-04-28T22:42:16.885Z,57.71
2023-04-28T22:44:43.905Z,57.99
2023-04-28T22:47:10.596Z,58.32
2023-04-28T22:49:37.243Z,58.41
2023-04-28T22:52:04.142Z,58.35
2023-04-28T22:54:31.978Z,58.59
2023-04-28T22:56:59.349Z,58.53
2023-04-28T22:59:26.687Z,58.08
2023-04-28T23:01:54.794Z,58.66
2023-04-28T23:04:22.147Z,58.56
2023-04-28T23:06:49.102Z,58.30
2023-04-28T23:09:16.223Z,58.18
2023-04-28T23:11:43.090Z,58.69
2023-04-28T23:14:10.301Z,58.83
2023-04-28T23:16:37.252Z,58.81
2023-04-28T23:19:03.942Z,59.06
2023-04-28T23:21:31.270Z,59.25
2023-04-28T23:23:57.892Z,58.94
2023-04-28T23:26:24.813Z,59.21
2023-04-28T23:28:51.595Z,59.41
2023-04-28T23:31:18.224Z,59.45
2023-04-28T23:33:44.893Z,59.64
2023-04-28T23:36:12.618Z,59.52
2023-04-28T23:38:39.416Z,59.13
2023-04-28T23:41:06.561Z,59.31
2023-04-28T23:43:33.700Z,59.38
2023-04-28T23:46:00.490Z,59.64
2023-04-28T23:48:27.598Z,59.19
2023-04-28T23:50:54.658Z,59.68
2023-04-28T23:53:21.578Z,59.34
2023-04-28T23:55:48.597Z,59.44
2023-04-28T23:58:15.268Z,59.50
